CDT,Max TemperatureF,Mean TemperatureF,Min TemperatureF,Max Dew PointF,MeanDew PointF,Min DewpointF,Max Humidity, Mean Humidity, Min Humidity, Max Sea Level PressureIn, Mean Sea Level PressureIn, Min Sea Level PressureIn, Max VisibilityMiles, Mean VisibilityMiles, Min VisibilityMiles, Max Wind SpeedMPH, Mean Wind SpeedMPH, Max Gust SpeedMPH,PrecipitationIn, CloudCover, Events, WindDirDegrees
2012-10-1,61,58,56,56,53,50,94,83,74,29.83,29.74,29.67,10,8,3,17,8,24,0.32,5,Rain,6
2012-10-2,59,56,55,57,56,53,96,93,84,29.91,29.78,29.67,10,5,2,12,8,16,0.09,8,Rain,297
2012-10-3,78,68,57,58,55,52,100,72,40,30.13,30.02,29.91,10,8,4,14,6,22,0.06,4,Rain-Thunderstorm,184
2012-10-4,81,68,56,60,57,55,96,73,42,30.21,30.15,30.12,10,9,5,14,5,18,0.00,1,,189
2012-10-5,64,54,44,58,49,42,95,85,59,30.18,30.13,30.04,10,9,4,21,6,25,0.61,4,Rain-Thunderstorm,344
2012-10-6,56,46,38,44,38,32,97,73,41,30.24,30.20,30.17,10,9,7,13,7,17,0.01,3,,314
2012-10-7,56,48,41,41,36,32,97,66,40,30.26,30.21,30.18,10,9,5,15,6,21,0.00,3,,305
2012-10-8,61,48,35,43,37,32,99,71,32,30.26,30.19,30.12,10,9,2,8,1,,0.00,0,,185
2012-10-9,66,51,36,47,42,36,99,73,41,30.14,30.06,29.96,10,9,7,15,4,22,0.00,0,,182
2012-10-10,58,47,36,48,37,27,97,63,31,30.27,30.17,29.98,10,10,7,18,9,28,0.00,2,,297
2012-10-11,66,49,33,48,37,32,99,70,30,30.30,30.25,30.18,10,9,5,13,3,10,0.00,2,,173
2012-10-12,70,60,49,52,49,46,97,74,42,30.35,30.27,30.20,10,9,0,10,2,16,0.02,3,Fog-Rain,79
2012-10-13,81,64,48,66,58,47,97,80,55,30.26,30.10,29.93,10,7,1,21,7,26,0.00,3,,164
2012-10-14,74,66,59,65,61,53,88,75,58,29.93,29.83,29.74,10,10,7,32,18,39,0.10,5,Rain,209
2012-10-15,68,57,45,52,47,42,95,72,39,30.02,29.97,29.92,10,8,7,14,6,20,0.00,0,,278
2012-10-16,78,60,42,56,49,42,97,70,40,29.99,29.86,29.72,10,9,4,18,6,22,0.00,0,,159
2012-10-17,78,66,55,59,53,48,96,67,42,29.76,29.62,29.41,10,9,4,29,14,40,0.91,4,Rain-Thunderstorm,169
2012-10-18,65,58,50,53,42,31,90,60,28,29.68,29.63,29.53,10,9,5,25,14,44,0.07,2,Rain,219
2012-10-19,56,52,48,48,44,37,89,73,48,29.80,29.67,29.57,10,9,4,18,9,23,0.08,7,Rain,228
2012-10-20,60,53,46,48,46,44,95,81,60,29.97,29.90,29.80,10,10,7,10,6,,0.00,5,,225
2012-10-21,78,60,43,60,52,42,98,74,47,30.03,30.00,29.96,10,9,5,15,6,20,0.00,2,,144
2012-10-22,83,72,61,59,55,52,79,59,36,30.06,30.03,29.99,10,9,5,25,10,36,0.00,2,Thunderstorm,173
2012-10-23,80,69,58,59,56,52,85,66,46,30.05,30.00,29.95,10,10,7,18,9,21,0.00,1,Thunderstorm,176
2012-10-24,81,70,58,62,58,54,87,72,49,30.07,30.01,29.97,10,9,7,16,9,23,0.00,1,,174
2012-10-25,81,67,52,62,58,46,95,72,50,30.07,29.94,29.87,10,10,7,25,11,31,0.00,2,,172
2012-10-26,48,46,42,46,40,36,94,80,69,30.27,30.20,30.08,10,9,4,21,15,30,0.45,6,Rain,338
2012-10-27,55,46,37,38,36,34,89,70,49,30.22,30.18,30.13,10,10,7,20,12,25,0.00,0,,343
2012-10-28,54,46,39,38,35,32,87,70,44,30.19,30.17,30.14,10,10,10,21,11,26,0.00,1,,339
2012-10-29,56,46,36,35,33,30,90,64,38,30.23,30.15,30.01,10,10,10,24,12,31,0.00,0,,327
2012-10-30,55,46,38,32,27,20,68,51,26,30.01,29.87,29.80,10,10,10,23,14,32,0.00,0,,302
2012-10-31,53,42,32,32,29,27,92,63,38,29.95,29.91,29.86,10,10,5,17,9,23,0.00,0,,282